sensor_id;sensor_type;location;lat;lon;timestamp;temperature;humidity
13798;DHT22;6970;51.340;3.240;2023-04-01T00:01:49;10.00;99.90
13798;DHT22;6970;51.340;3.240;2023-04-01T00:04:16;10.00;99.90
13798;DHT22;6970;51.340;3.240;2023-04-01T00:06:43;10.00;99.90
13798;DHT22;6970;51.340;3.240;2023-04-01T00:09:10;9.90;99.90
13798;DHT22;6970;51.340;3.240;2023-04-01T00:11:37;9.90;99.90
13798;DHT22;6970;51.340;3.240;2023-04-01T00:14:06;9.90;99.90
13798;DHT22;6970;51.340;3.240;2023-04-01T00:16:33;9.90;99.90
13798;DHT22;6970;51.340;3.240;2023-04-01T00:19:00;9.90;99.90
13798;DHT22;6970;51.340;3.240;2023-04-01T00:21:27;9.90;99.90
13798;DHT22;6970;51.340;3.240;2023-04-01T00:23:55;9.90;99.90
13798;DHT22;6970;51.340;3.240;2023-04-01T00:26:22;9.90;99.90
13798;DHT22;6970;51.340;3.240;2023-04-01T00:28:49;10.00;99.90
13798;DHT22;6970;51.340;3.240;2023-04-01T00:31:16;10.00;99.90
13798;DHT22;6970;51.340;3.240;2023-04-01T00:33:45;10.00;99.90
13798;DHT22;6970;51.340;3.240;2023-04-01T00:36:18;10.00;99.90
13798;DHT22;6970;51.340;3.240;2023-04-01T00:38:46;10.10;99.90
13798;DHT22;6970;51.340;3.240;2023-04-01T00:41:15;10.10;99.90
13798;DHT22;6970;51.340;3.240;2023-04-01T00:43:46;10.10;99.90
13798;DHT22;6970;51.340;3.240;2023-04-01T00:46:14;10.10;99.90
13798;DHT22;6970;51.340;3.240;2023-04-01T00:48:48;10.00;99.90
13798;DHT22;6970;51.340;3.240;2023-04-01T00:51:22;10.00;99.90
13798;DHT22;6970;51.340;3.240;2023-04-01T00:53:53;10.00;99.90
13798;DHT22;6970;51.340;3.240;2023-04-01T00:56:36;10.00;99.90
13798;DHT22;6970;51.340;3.240;2023-04-01T00:59:14;10.00;99.90
13798;DHT22;6970;51.340;3.240;2023-04-01T01:01:42;10.00;99.90
13798;DHT22;6970;51.340;3.240;2023-04-01T01:04:27;10.00;99.90
13798;DHT22;6970;51.340;3.240;2023-04-01T01:07:12;10.00;99.90
13798;DHT22;6970;51.340;3.240;2023-04-01T01:12:40;10.00;99.90
13798;DHT22;6970;51.340;3.240;2023-04-01T01:15:30;10.00;99.90
13798;DHT22;6970;51.340;3.240;2023-04-01T01:18:19;10.00;99.90
13798;DHT22;6970;51.340;3.240;2023-04-01T01:20:58;9.90;99.90
13798;DHT22;6970;51.340;3.240;2023-04-01T01:29:58;9.90;99.90
13798;DHT22;6970;51.340;3.240;2023-04-01T01:35:48;9.90;99.90
13798;DHT22;6970;51.340;3.240;2023-04-01T01:38:10;9.90;99.90
13798;DHT22;6970;51.340;3.240;2023-04-01T01:40:41;9.90;99.90
13798;DHT22;6970;51.340;3.240;2023-04-01T01:43:12;9.90;99.90
13798;DHT22;6970;51.340;3.240;2023-04-01T01:45:46;9.90;99.90
13798;DHT22;6970;51.340;3.240;2023-04-01T01:48:16;9.90;99.90
13798;DHT22;6970;51.340;3.240;2023-04-01T01:50:45;9.90;99.90
13798;DHT22;6970;51.340;3.240;2023-04-01T01:53:13;9.90;99.90
13798;DHT22;6970;51.340;3.240;2023-04-01T01:55:43;9.90;99.90
13798;DHT22;6970;51.340;3.240;2023-04-01T01:58:43;9.90;99.90
13798;DHT22;6970;51.340;3.240;2023-04-01T02:01:24;9.80;99.90
13798;DHT22;6970;51.340;3.240;2023-04-01T02:03:53;9.80;99.90
13798;DHT22;6970;51.340;3.240;2023-04-01T02:06:24;9.90;99.90
13798;DHT22;6970;51.340;3.240;2023-04-01T02:09:01;9.90;99.90
13798;DHT22;6970;51.340;3.240;2023-04-01T02:11:40;9.90;99.90
13798;DHT22;6970;51.340;3.240;2023-04-01T02:14:28;9.90;99.90
13798;DHT22;6970;51.340;3.240;2023-04-01T02:17:05;9.90;99.90
13798;DHT22;6970;51.340;3.240;2023-04-01T02:19:39;9.90;99.90
13798;DHT22;6970;51.340;3.240;2023-04-01T02:22:12;9.90;99.90
13798;DHT22;6970;51.340;3.240;2023-04-01T02:24:40;9.90;99.90
13798;DHT22;6970;51.340;3.240;2023-04-01T02:27:09;9.80;99.90
13798;DHT22;6970;51.340;3.240;2023-04-01T02:29:37;9.80;99.90
13798;DHT22;6970;51.340;3.240;2023-04-01T02:32:05;9.80;99.90
13798;DHT22;6970;51.340;3.240;2023-04-01T02:34:34;9.80;99.90
13798;DHT22;6970;51.340;3.240;2023-04-01T02:37:01;9.80;99.90
13798;DHT22;6970;51.340;3.240;2023-04-01T02:39:28;9.80;99.90
13798;DHT22;6970;51.340;3.240;2023-04-01T02:41:56;9.80;99.90
13798;DHT22;6970;51.340;3.240;2023-04-01T02:44:23;9.70;99.90
13798;DHT22;6970;51.340;3.240;2023-04-01T02:46:50;9.70;99.90
13798;DHT22;6970;51.340;3.240;2023-04-01T02:49:17;9.70;99.90
13798;DHT22;6970;51.340;3.240;2023-04-01T02:51:44;9.70;99.90
13798;DHT22;6970;51.340;3.240;2023-04-01T02:54:11;9.70;99.90
13798;DHT22;6970;51.340;3.240;2023-04-01T02:56:40;9.70;99.90
13798;DHT22;6970;51.340;3.240;2023-04-01T02:59:08;9.70;99.90
13798;DHT22;6970;51.340;3.240;2023-04-01T03:01:35;9.70;99.90
13798;DHT22;6970;51.340;3.240;2023-04-01T03:04:02;9.70;99.90
13798;DHT22;6970;51.340;3.240;2023-04-01T03:06:29;9.70;99.90
13798;DHT22;6970;51.340;3.240;2023-04-01T03:08:57;9.70;99.90
13798;DHT22;6970;51.340;3.240;2023-04-01T03:11:24;9.70;99.90
13798;DHT22;6970;51.340;3.240;2023-04-01T03:13:52;9.70;99.90
13798;DHT22;6970;51.340;3.240;2023-04-01T03:16:19;9.70;99.90
13798;DHT22;6970;51.340;3.240;2023-04-01T03:18:46;9.60;99.90
13798;DHT22;6970;51.340;3.240;2023-04-01T03:21:21;9.70;99.90
13798;DHT22;6970;51.340;3.240;2023-04-01T03:23:48;9.70;99.90
13798;DHT22;6970;51.340;3.240;2023-04-01T03:26:16;9.60;99.90
13798;DHT22;6970;51.340;3.240;2023-04-01T03:28:43;9.70;99.90
13798;DHT22;6970;51.340;3.240;2023-04-01T03:31:10;9.60;99.90
13798;DHT22;6970;51.340;3.240;2023-04-01T03:33:37;9.60;99.90
13798;DHT22;6970;51.340;3.240;2023-04-01T03:36:05;9.70;99.90
13798;DHT22;6970;51.340;3.240;2023-04-01T03:38:34;9.60;99.90
13798;DHT22;6970;51.340;3.240;2023-04-01T03:41:02;9.70;99.90
13798;DHT22;6970;51.340;3.240;2023-04-01T03:43:29;9.70;99.90
13798;DHT22;6970;51.340;3.240;2023-04-01T03:45:56;9.70;99.90
13798;DHT22;6970;51.340;3.240;2023-04-01T03:48:25;9.60;99.90
13798;DHT22;6970;51.340;3.240;2023-04-01T03:50:52;9.60;99.90
13798;DHT22;6970;51.340;3.240;2023-04-01T03:53:19;9.60;99.90
13798;DHT22;6970;51.340;3.240;2023-04-01T03:55:47;9.60;99.90
13798;DHT22;6970;51.340;3.240;2023-04-01T03:58:15;9.60;99.90
13798;DHT22;6970;51.340;3.240;2023-04-01T04:00:42;9.60;99.90
13798;DHT22;6970;51.340;3.240;2023-04-01T04:03:09;9.60;99.90
13798;DHT22;6970;51.340;3.240;2023-04-01T04:05:36;9.60;99.90
13798;DHT22;6970;51.340;3.240;2023-04-01T04:08:04;9.60;99.90
13798;DHT22;6970;51.340;3.240;2023-04-01T04:10:31;9.60;99.90
13798;DHT22;6970;51.340;3.240;2023-04-01T04:12:58;9.60;99.90
13798;DHT22;6970;51.340;3.240;2023-04-01T04:15:25;9.60;99.90
13798;DHT22;6970;51.340;3.240;2023-04-01T04:17:52;9.60;99.90
13798;DHT22;6970;51.340;3.240;2023-04-01T04:20:19;9.60;99.90
13798;DHT22;6970;51.340;3.240;2023-04-01T04:22:46;9.60;99.90
13798;DHT22;6970;51.340;3.240;2023-04-01T04:25:13;9.60;99.90
13798;DHT22;6970;51.340;3.240;2023-04-01T04:27:40;9.60;99.90
13798;DHT22;6970;51.340;3.240;2023-04-01T04:30:08;9.60;99.90
13798;DHT22;6970;51.340;3.240;2023-04-01T04:32:36;9.60;99.90
13798;DHT22;6970;51.340;3.240;2023-04-01T04:35:04;9.60;99.90
13798;DHT22;6970;51.340;3.240;2023-04-01T04:37:33;9.60;99.90
13798;DHT22;6970;51.340;3.240;2023-04-01T04:40:00;9.60;99.90
13798;DHT22;6970;51.340;3.240;2023-04-01T04:42:27;9.60;99.90
13798;DHT22;6970;51.340;3.240;2023-04-01T04:44:54;9.60;99.90
13798;DHT22;6970;51.340;3.240;2023-04-01T04:47:21;9.50;99.90
13798;DHT22;6970;51.340;3.240;2023-04-01T04:49:48;9.50;99.90
13798;DHT22;6970;51.340;3.240;2023-04-01T04:52:15;9.50;99.90
13798;DHT22;6970;51.340;3.240;2023-04-01T04:54:42;9.50;99.90
13798;DHT22;6970;51.340;3.240;2023-04-01T04:57:09;9.50;99.90
13798;DHT22;6970;51.340;3.240;2023-04-01T04:59:36;9.50;99.90
13798;DHT22;6970;51.340;3.240;2023-04-01T05:02:03;9.50;99.90
13798;DHT22;6970;51.340;3.240;2023-04-01T05:04:34;9.50;99.90
13798;DHT22;6970;51.340;3.240;2023-04-01T05:07:02;9.40;99.90
13798;DHT22;6970;51.340;3.240;2023-04-01T05:09:29;9.40;99.90
13798;DHT22;6970;51.340;3.240;2023-04-01T05:11:56;9.50;99.90
13798;DHT22;6970;51.340;3.240;2023-04-01T05:14:23;9.50;99.90
13798;DHT22;6970;51.340;3.240;2023-04-01T05:16:50;9.40;99.90
13798;DHT22;6970;51.340;3.240;2023-04-01T05:19:17;9.50;99.90
13798;DHT22;6970;51.340;3.240;2023-04-01T05:21:44;9.50;99.90
13798;DHT22;6970;51.340;3.240;2023-04-01T05:24:11;9.50;99.90
13798;DHT22;6970;51.340;3.240;2023-04-01T05:26:38;9.40;99.90
13798;DHT22;6970;51.340;3.240;2023-04-01T05:29:05;9.40;99.90
13798;DHT22;6970;51.340;3.240;2023-04-01T05:31:33;9.40;99.90
13798;DHT22;6970;51.340;3.240;2023-04-01T05:34:00;9.40;99.90
13798;DHT22;6970;51.340;3.240;2023-04-01T05:36:27;9.40;99.90
13798;DHT22;6970;51.340;3.240;2023-04-01T05:38:57;9.40;99.90
13798;DHT22;6970;51.340;3.240;2023-04-01T05:41:24;9.40;99.90
13798;DHT22;6970;51.340;3.240;2023-04-01T05:43:51;9.40;99.90
13798;DHT22;6970;51.340;3.240;2023-04-01T05:46:18;9.40;99.90
13798;DHT22;6970;51.340;3.240;2023-04-01T05:48:45;9.40;99.90
13798;DHT22;6970;51.340;3.240;2023-04-01T05:51:15;9.40;99.90
13798;DHT22;6970;51.340;3.240;2023-04-01T05:53:42;9.40;99.90
13798;DHT22;6970;51.340;3.240;2023-04-01T05:56:11;9.40;99.90
13798;DHT22;6970;51.340;3.240;2023-04-01T05:58:38;9.40;99.90
13798;DHT22;6970;51.340;3.240;2023-04-01T06:01:10;9.30;99.90
13798;DHT22;6970;51.340;3.240;2023-04-01T06:03:42;9.40;99.90
13798;DHT22;6970;51.340;3.240;2023-04-01T06:06:27;9.30;99.90
13798;DHT22;6970;51.340;3.240;2023-04-01T06:08:56;9.30;99.90
13798;DHT22;6970;51.340;3.240;2023-04-01T06:17:19;9.40;99.90
13798;DHT22;6970;51.340;3.240;2023-04-01T06:29:08;9.40;99.90
13798;DHT22;6970;51.340;3.240;2023-04-01T06:32:04;9.40;99.90
13798;DHT22;6970;51.340;3.240;2023-04-01T06:56:24;9.50;99.90
13798;DHT22;6970;51.340;3.240;2023-04-01T06:59:12;9.50;99.90
13798;DHT22;6970;51.340;3.240;2023-04-01T07:01:55;9.50;99.90
13798;DHT22;6970;51.340;3.240;2023-04-01T07:04:48;9.50;99.90
13798;DHT22;6970;51.340;3.240;2023-04-01T07:07:26;9.50;99.90
13798;DHT22;6970;51.340;3.240;2023-04-01T07:09:57;9.50;99.90
13798;DHT22;6970;51.340;3.240;2023-04-01T07:15:20;9.50;99.90
13798;DHT22;6970;51.340;3.240;2023-04-01T07:17:52;9.60;99.90
13798;DHT22;6970;51.340;3.240;2023-04-01T07:20:25;9.60;99.90
13798;DHT22;6970;51.340;3.240;2023-04-01T07:22:57;9.60;99.90
13798;DHT22;6970;51.340;3.240;2023-04-01T07:25:29;9.60;99.90
13798;DHT22;6970;51.340;3.240;2023-04-01T07:28:05;9.60;99.90
13798;DHT22;6970;51.340;3.240;2023-04-01T07:33:25;9.70;99.90
13798;DHT22;6970;51.340;3.240;2023-04-01T07:44:59;9.80;99.90
13798;DHT22;6970;51.340;3.240;2023-04-01T07:53:03;9.80;99.90
13798;DHT22;6970;51.340;3.240;2023-04-01T07:55:45;10.00;99.90
13798;DHT22;6970;51.340;3.240;2023-04-01T08:09:06;9.90;99.90
13798;DHT22;6970;51.340;3.240;2023-04-01T08:22:36;9.90;99.90
13798;DHT22;6970;51.340;3.240;2023-04-01T08:25:06;9.90;99.90
13798;DHT22;6970;51.340;3.240;2023-04-01T08:27:39;9.90;99.90
13798;DHT22;6970;51.340;3.240;2023-04-01T08:32:58;9.90;99.90
13798;DHT22;6970;51.340;3.240;2023-04-01T08:44:04;9.90;99.90
13798;DHT22;6970;51.340;3.240;2023-04-01T08:49:51;9.90;99.90
13798;DHT22;6970;51.340;3.240;2023-04-01T08:55:22;9.90;99.90
13798;DHT22;6970;51.340;3.240;2023-04-01T09:00:56;9.90;99.90
13798;DHT22;6970;51.340;3.240;2023-04-01T09:17:31;10.00;99.90
13798;DHT22;6970;51.340;3.240;2023-04-01T09:25:45;10.10;99.90
13798;DHT22;6970;51.340;3.240;2023-04-01T09:28:19;10.20;99.90
13798;DHT22;6970;51.340;3.240;2023-04-01T09:42:29;10.20;99.90
13798;DHT22;6970;51.340;3.240;2023-04-01T09:45:04;10.20;99.90
13798;DHT22;6970;51.340;3.240;2023-04-01T09:53:01;10.20;99.90
13798;DHT22;6970;51.340;3.240;2023-04-01T10:10:13;10.30;99.90
13798;DHT22;6970;51.340;3.240;2023-04-01T10:24:18;10.50;99.90
13798;DHT22;6970;51.340;3.240;2023-04-01T10:35:14;10.60;99.90
13798;DHT22;6970;51.340;3.240;2023-04-01T10:45:55;10.80;99.90
13798;DHT22;6970;51.340;3.240;2023-04-01T11:33:05;10.70;99.90
13798;DHT22;6970;51.340;3.240;2023-04-01T11:35:49;10.70;99.90
13798;DHT22;6970;51.340;3.240;2023-04-01T11:52:26;10.90;99.90
13798;DHT22;6970;51.340;3.240;2023-04-01T11:55:06;11.00;99.90
13798;DHT22;6970;51.340;3.240;2023-04-01T12:12:10;11.20;99.90
13798;DHT22;6970;51.340;3.240;2023-04-01T12:17:49;11.10;99.90
13798;DHT22;6970;51.340;3.240;2023-04-01T12:20:28;11.00;99.90
13798;DHT22;6970;51.340;3.240;2023-04-01T12:28:40;11.10;99.90
13798;DHT22;6970;51.340;3.240;2023-04-01T12:39:59;11.10;99.90
13798;DHT22;6970;51.340;3.240;2023-04-01T12:42:44;11.00;99.90
13798;DHT22;6970;51.340;3.240;2023-04-01T12:45:31;11.00;99.90
13798;DHT22;6970;51.340;3.240;2023-04-01T12:50:51;10.80;99.90
13798;DHT22;6970;51.340;3.240;2023-04-01T12:59:00;10.60;99.90
13798;DHT22;6970;51.340;3.240;2023-04-01T13:32:20;10.40;99.90
13798;DHT22;6970;51.340;3.240;2023-04-01T13:37:49;10.30;99.90
13798;DHT22;6970;51.340;3.240;2023-04-01T13:43:42;10.30;99.90
13798;DHT22;6970;51.340;3.240;2023-04-01T13:49:08;10.20;99.90
13798;DHT22;6970;51.340;3.240;2023-04-01T14:00:40;10.30;99.90
13798;DHT22;6970;51.340;3.240;2023-04-01T14:03:20;10.40;99.90
13798;DHT22;6970;51.340;3.240;2023-04-01T14:05:56;10.50;99.90
13798;DHT22;6970;51.340;3.240;2023-04-01T14:32:55;10.60;99.90
13798;DHT22;6970;51.340;3.240;2023-04-01T14:49:41;10.50;99.90
13798;DHT22;6970;51.340;3.240;2023-04-01T14:54:44;10.50;99.90
13798;DHT22;6970;51.340;3.240;2023-04-01T14:57:15;10.40;99.90
13798;DHT22;6970;51.340;3.240;2023-04-01T15:00:17;10.40;99.90
13798;DHT22;6970;51.340;3.240;2023-04-01T15:03:12;10.30;99.90
13798;DHT22;6970;51.340;3.240;2023-04-01T15:09:28;10.30;99.90
13798;DHT22;6970;51.340;3.240;2023-04-01T15:12:40;10.30;99.90
13798;DHT22;6970;51.340;3.240;2023-04-01T15:21:00;10.20;99.90
13798;DHT22;6970;51.340;3.240;2023-04-01T15:31:24;10.10;99.90
13798;DHT22;6970;51.340;3.240;2023-04-01T15:44:55;10.10;99.90
13798;DHT22;6970;51.340;3.240;2023-04-01T15:55:39;10.10;99.90
13798;DHT22;6970;51.340;3.240;2023-04-01T15:58:44;10.10;99.90
13798;DHT22;6970;51.340;3.240;2023-04-01T16:01:26;10.10;99.90
13798;DHT22;6970;51.340;3.240;2023-04-01T16:16:07;9.90;99.90
13798;DHT22;6970;51.340;3.240;2023-04-01T16:21:57;9.90;99.90
13798;DHT22;6970;51.340;3.240;2023-04-01T16:27:11;9.90;99.90
13798;DHT22;6970;51.340;3.240;2023-04-01T16:30:00;9.90;99.90
13798;DHT22;6970;51.340;3.240;2023-04-01T16:35:23;9.90;99.90
13798;DHT22;6970;51.340;3.240;2023-04-01T16:41:20;9.90;99.90
13798;DHT22;6970;51.340;3.240;2023-04-01T16:43:53;9.90;99.90
13798;DHT22;6970;51.340;3.240;2023-04-01T16:52:03;9.90;99.90
13798;DHT22;6970;51.340;3.240;2023-04-01T16:54:56;9.80;99.90
13798;DHT22;6970;51.340;3.240;2023-04-01T17:00:37;9.80;99.90
13798;DHT22;6970;51.340;3.240;2023-04-01T17:11:27;9.60;99.90
13798;DHT22;6970;51.340;3.240;2023-04-01T17:20:43;9.50;99.90
13798;DHT22;6970;51.340;3.240;2023-04-01T17:23:30;9.50;99.90
13798;DHT22;6970;51.340;3.240;2023-04-01T17:28:49;9.40;99.90
13798;DHT22;6970;51.340;3.240;2023-04-01T17:31:37;9.40;99.90
13798;DHT22;6970;51.340;3.240;2023-04-01T17:40:21;9.20;99.90
13798;DHT22;6970;51.340;3.240;2023-04-01T17:45:57;9.20;99.90
13798;DHT22;6970;51.340;3.240;2023-04-01T17:59:43;9.10;99.90
13798;DHT22;6970;51.340;3.240;2023-04-01T18:02:29;9.10;99.90
13798;DHT22;6970;51.340;3.240;2023-04-01T18:11:13;9.10;99.90
13798;DHT22;6970;51.340;3.240;2023-04-01T18:18:57;9.00;99.90
13798;DHT22;6970;51.340;3.240;2023-04-01T18:21:52;9.00;99.90
13798;DHT22;6970;51.340;3.240;2023-04-01T18:30:36;9.00;99.90
13798;DHT22;6970;51.340;3.240;2023-04-01T18:33:24;9.00;99.90
13798;DHT22;6970;51.340;3.240;2023-04-01T18:36:39;9.00;99.90
13798;DHT22;6970;51.340;3.240;2023-04-01T18:41:48;9.00;99.90
13798;DHT22;6970;51.340;3.240;2023-04-01T18:44:55;9.00;99.90
13798;DHT22;6970;51.340;3.240;2023-04-01T18:50:23;9.00;99.90
13798;DHT22;6970;51.340;3.240;2023-04-01T18:53:41;9.00;99.90
13798;DHT22;6970;51.340;3.240;2023-04-01T18:55:57;8.90;99.90
13798;DHT22;6970;51.340;3.240;2023-04-01T18:58:49;9.00;99.90
13798;DHT22;6970;51.340;3.240;2023-04-01T19:04:37;8.90;99.90
13798;DHT22;6970;51.340;3.240;2023-04-01T19:07:39;8.90;99.90
13798;DHT22;6970;51.340;3.240;2023-04-01T19:52:02;8.80;99.90
13798;DHT22;6970;51.340;3.240;2023-04-01T20:02:58;8.70;99.90
13798;DHT22;6970;51.340;3.240;2023-04-01T20:08:02;8.70;99.90
13798;DHT22;6970;51.340;3.240;2023-04-01T20:16:20;8.70;99.90
13798;DHT22;6970;51.340;3.240;2023-04-01T20:18:56;8.70;99.90
13798;DHT22;6970;51.340;3.240;2023-04-01T20:21:43;8.60;99.90
13798;DHT22;6970;51.340;3.240;2023-04-01T20:24:26;8.60;99.90
13798;DHT22;6970;51.340;3.240;2023-04-01T20:27:10;8.60;99.90
13798;DHT22;6970;51.340;3.240;2023-04-01T20:41:34;8.60;99.90
13798;DHT22;6970;51.340;3.240;2023-04-01T20:47:22;8.60;99.90
13798;DHT22;6970;51.340;3.240;2023-04-01T21:25:27;8.50;99.90
13798;DHT22;6970;51.340;3.240;2023-04-01T21:36:45;8.50;99.90
13798;DHT22;6970;51.340;3.240;2023-04-01T21:44:43;8.50;99.90
13798;DHT22;6970;51.340;3.240;2023-04-01T21:47:42;8.40;99.90
13798;DHT22;6970;51.340;3.240;2023-04-01T21:50:30;8.40;99.90
13798;DHT22;6970;51.340;3.240;2023-04-01T22:01:00;8.50;99.90
13798;DHT22;6970;51.340;3.240;2023-04-01T22:06:28;8.50;99.90
13798;DHT22;6970;51.340;3.240;2023-04-01T22:09:25;8.50;99.90
13798;DHT22;6970;51.340;3.240;2023-04-01T22:31:49;8.50;99.90
13798;DHT22;6970;51.340;3.240;2023-04-01T22:37:40;8.40;99.90
13798;DHT22;6970;51.340;3.240;2023-04-01T22:40:29;8.50;99.90
13798;DHT22;6970;51.340;3.240;2023-04-01T22:45:50;8.40;99.90
13798;DHT22;6970;51.340;3.240;2023-04-01T22:48:29;8.40;99.90
13798;DHT22;6970;51.340;3.240;2023-04-01T22:51:22;8.40;99.90
13798;DHT22;6970;51.340;3.240;2023-04-01T22:57:02;8.40;99.90
13798;DHT22;6970;51.340;3.240;2023-04-01T23:02:20;8.40;99.90
13798;DHT22;6970;51.340;3.240;2023-04-01T23:04:55;8.40;99.90
13798;DHT22;6970;51.340;3.240;2023-04-01T23:10:46;8.40;99.90
13798;DHT22;6970;51.340;3.240;2023-04-01T23:13:20;8.40;99.90
13798;DHT22;6970;51.340;3.240;2023-04-01T23:15:53;8.40;99.90
13798;DHT22;6970;51.340;3.240;2023-04-01T23:23:48;8.40;99.90
13798;DHT22;6970;51.340;3.240;2023-04-01T23:28:58;8.40;99.90
13798;DHT22;6970;51.340;3.240;2023-04-01T23:31:29;8.40;99.90
13798;DHT22;6970;51.340;3.240;2023-04-01T23:33:59;8.40;99.90
13798;DHT22;6970;51.340;3.240;2023-04-01T23:36:28;8.40;99.90
13798;DHT22;6970;51.340;3.240;2023-04-01T23:38:56;8.40;99.90
13798;DHT22;6970;51.340;3.240;2023-04-01T23:41:27;8.40;99.90
13798;DHT22;6970;51.340;3.240;2023-04-01T23:44:01;8.40;99.90
13798;DHT22;6970;51.340;3.240;2023-04-01T23:46:30;8.40;99.90
13798;DHT22;6970;51.340;3.240;2023-04-01T23:48:58;8.40;99.90
13798;DHT22;6970;51.340;3.240;2023-04-01T23:51:29;8.40;99.90
13798;DHT22;6970;51.340;3.240;2023-04-01T23:54:16;8.40;99.90
13798;DHT22;6970;51.340;3.240;2023-04-01T23:56:47;8.40;99.90
13798;DHT22;6970;51.340;3.240;2023-04-01T23:59:32;8.40;99.90
